Time;durP1;ratioP1;P1;durP2;ratioP2;P2;SDS_P1;SDS_P2;PMS_P1;PMS_P2;Temp;Humidity;BMP_temperature;BMP_pressure;BME280_temperature;BME280_humidity;BME280_pressure;Samples;Min_cycle;Max_cycle;Signal;HPM_P1;HPM_P2
2021/12/08 04:01:30;;;;;;;3.10;1.93;;;4.60;84.80;;;;;;5633881;23;20515;-71
2021/12/08 04:04:02;;;;;;;2.93;1.40;;;4.70;84.60;;;;;;4994083;28;20456;-71
2021/12/08 04:06:32;;;;;;;4.23;2.07;;;4.90;84.00;;;;;;4994132;28;20469;-71
2021/12/08 04:09:05;;;;;;;3.20;1.87;;;4.90;83.70;;;;;;4994083;28;20449;-71
2021/12/08 04:11:31;;;;;;;2.70;1.30;;;5.10;83.40;;;;;;4993702;28;20864;-72
2021/12/08 04:14:02;;;;;;;2.70;1.70;;;5.10;83.30;;;;;;5019061;23;20551;-70
2021/12/08 04:16:34;;;;;;;3.80;1.30;;;5.10;83.10;;;;;;4994041;28;20496;-70
2021/12/08 04:19:01;;;;;;;2.63;1.20;;;5.10;82.80;;;;;;4994046;28;20496;-70
2021/12/08 04:21:29;;;;;;;2.70;1.43;;;5.10;83.10;;;;;;4993854;28;20561;-70
2021/12/08 04:23:57;;;;;;;2.90;1.70;;;5.00;82.70;;;;;;4993463;28;20984;-70
2021/12/08 04:26:30;;;;;;;3.60;1.57;;;4.70;84.00;;;;;;4993877;28;20503;-70
2021/12/08 04:28:56;;;;;;;2.57;1.30;;;4.60;84.50;;;;;;4993888;28;20849;-69
2021/12/08 04:31:26;;;;;;;3.73;2.10;;;4.50;85.00;;;;;;4993789;28;20503;-70
2021/12/08 04:33:59;;;;;;;3.73;1.40;;;4.50;85.60;;;;;;4993686;28;20480;-70
2021/12/08 04:36:27;;;;;;;3.63;2.00;;;4.60;85.80;;;;;;4993781;28;20433;-69
2021/12/08 04:38:58;;;;;;;3.00;1.70;;;4.50;86.00;;;;;;4993720;28;20472;-70
2021/12/08 04:41:32;;;;;;;2.97;1.60;;;4.40;86.00;;;;;;4993683;28;20468;-69
2021/12/08 04:44:07;;;;;;;3.43;1.33;;;4.40;86.90;;;;;;4993784;28;20564;-71
2021/12/08 04:46:55;;;;;;;3.07;1.40;;;4.50;86.70;;;;;;4993633;28;20437;-70
2021/12/08 04:49:49;;;;;;;3.37;2.00;;;4.50;86.30;;;;;;4993786;28;20528;-69
2021/12/08 04:52:22;;;;;;;3.43;2.10;;;4.60;86.60;;;;;;4993765;28;20441;-69
2021/12/08 05:00:44;;;;;;;3.30;2.00;;;4.40;87.60;;;;;;4993697;28;20400;-70
2021/12/08 05:03:36;;;;;;;3.30;1.90;;;4.30;88.30;;;;;;4993923;28;20852;-70
2021/12/08 05:06:18;;;;;;;3.30;2.00;;;4.30;89.00;;;;;;4997219;28;20496;-69
2021/12/08 05:08:48;;;;;;;3.27;1.87;;;4.30;89.50;;;;;;4997114;28;20437;-70
2021/12/08 05:11:18;;;;;;;2.80;1.67;;;4.30;89.30;;;;;;4997021;28;20453;-70
2021/12/08 05:13:49;;;;;;;3.80;2.10;;;4.30;89.50;;;;;;4996802;28;20476;-70
2021/12/08 05:16:18;;;;;;;3.57;1.80;;;4.30;89.60;;;;;;4996967;28;20437;-70
2021/12/08 05:18:49;;;;;;;3.73;1.90;;;4.40;89.90;;;;;;4996524;28;20869;-69
2021/12/08 05:21:21;;;;;;;3.60;2.60;;;4.50;90.00;;;;;;4996773;28;20449;-70
2021/12/08 05:23:50;;;;;;;3.20;2.23;;;4.60;89.30;;;;;;4996439;28;21002;-69
2021/12/08 05:26:24;;;;;;;2.80;1.50;;;4.60;89.40;;;;;;4996659;28;20449;-70
2021/12/08 05:28:51;;;;;;;3.30;2.00;;;4.70;89.20;;;;;;4996415;28;20802;-70
2021/12/08 05:31:22;;;;;;;2.60;1.50;;;4.80;89.10;;;;;;4996683;28;20449;-70
2021/12/08 05:33:49;;;;;;;2.70;1.47;;;5.00;88.50;;;;;;4996543;28;20482;-69
2021/12/08 05:36:17;;;;;;;3.10;1.83;;;5.00;88.10;;;;;;4996574;28;20453;-70
2021/12/08 05:38:45;;;;;;;3.37;2.10;;;5.10;87.80;;;;;;4996524;28;20457;-70
2021/12/08 05:41:15;;;;;;;4.20;2.00;;;5.20;87.70;;;;;;4996356;28;20453;-69
2021/12/08 05:43:42;;;;;;;3.40;2.10;;;5.30;87.20;;;;;;4996295;28;20473;-70
2021/12/08 05:46:12;;;;;;;2.80;1.70;;;5.20;87.00;;;;;;4996394;28;20800;-70
2021/12/08 05:48:39;;;;;;;3.80;2.20;;;5.30;87.20;;;;;;4996379;28;20445;-70
2021/12/08 05:51:09;;;;;;;3.70;1.93;;;5.30;87.20;;;;;;4995917;28;20445;-70
2021/12/08 05:53:38;;;;;;;3.03;2.00;;;5.40;87.50;;;;;;4996042;28;20468;-70
2021/12/08 05:56:06;;;;;;;3.07;2.10;;;5.30;87.10;;;;;;4995642;28;20932;-69
2021/12/08 05:58:33;;;;;;;3.87;2.00;;;4.90;88.40;;;;;;4996819;28;20503;-70
2021/12/08 06:01:05;;;;;;;3.20;1.67;;;5.10;88.90;;;;;;4995964;28;20449;-70
2021/12/08 06:03:32;;;;;;;3.00;1.83;;;5.20;87.90;;;;;;4995771;28;20937;-70
2021/12/08 06:05:59;;;;;;;4.17;2.60;;;5.30;87.70;;;;;;4996189;28;20449;-70
2021/12/08 06:08:28;;;;;;;3.40;1.87;;;5.10;88.10;;;;;;4996083;28;20445;-69
2021/12/08 06:10:58;;;;;;;3.10;2.00;;;5.10;88.40;;;;;;4995546;28;20460;-70
2021/12/08 06:13:24;;;;;;;3.17;1.90;;;5.00;89.00;;;;;;4995573;28;20477;-70
2021/12/08 06:15:51;;;;;;;2.90;1.73;;;4.80;89.40;;;;;;4994888;28;20437;-70
2021/12/08 06:18:26;;;;;;;3.63;2.37;;;4.80;90.20;;;;;;4995777;28;20442;-70
2021/12/08 06:20:57;;;;;;;3.40;2.00;;;4.90;90.30;;;;;;4995706;28;20447;-70
2021/12/08 06:23:24;;;;;;;3.77;2.23;;;5.00;90.30;;;;;;4995573;28;20488;-70
2021/12/08 06:25:52;;;;;;;4.37;2.17;;;5.10;89.50;;;;;;4995290;28;21007;-70
2021/12/08 06:28:20;;;;;;;3.13;1.97;;;5.10;89.00;;;;;;4995534;28;20457;-70
2021/12/08 06:30:49;;;;;;;3.23;1.90;;;5.10;89.20;;;;;;4995191;28;20852;-70
2021/12/08 06:33:20;;;;;;;3.27;1.93;;;5.00;89.00;;;;;;4995284;28;20453;-69
2021/12/08 06:35:50;;;;;;;6.40;4.90;;;5.10;89.50;;;;;;4995080;28;20924;-70
2021/12/08 06:38:18;;;;;;;4.13;2.97;;;5.20;89.00;;;;;;4995391;28;20433;-70
2021/12/08 06:40:50;;;;;;;4.20;3.37;;;5.10;89.30;;;;;;4995446;28;20457;-70
2021/12/08 06:43:21;;;;;;;4.03;2.83;;;4.90;88.70;;;;;;4995191;28;20473;-70
2021/12/08 06:45:50;;;;;;;4.50;3.20;;;5.10;89.20;;;;;;4995214;28;20437;-70
2021/12/08 06:48:23;;;;;;;4.33;2.77;;;5.10;88.70;;;;;;4994938;28;20507;-70
2021/12/08 06:50:53;;;;;;;4.43;3.00;;;5.40;88.00;;;;;;4994862;28;20855;-71
2021/12/08 06:53:20;;;;;;;3.90;2.90;;;5.30;87.80;;;;;;4994713;28;20941;-71
2021/12/08 06:55:50;;;;;;;4.13;2.90;;;5.30;88.50;;;;;;4994662;28;20552;-71
2021/12/08 06:58:22;;;;;;;4.00;2.97;;;5.30;88.10;;;;;;4994961;28;20560;-71
2021/12/08 07:01:00;;;;;;;3.37;1.97;;;5.40;88.10;;;;;;4994575;28;20429;-71
2021/12/08 07:03:37;;;;;;;3.97;2.40;;;5.50;88.00;;;;;;4994781;28;20481;-70
2021/12/08 07:06:30;;;;;;;4.20;2.63;;;5.40;87.70;;;;;;4994531;28;20807;-70
2021/12/08 07:08:59;;;;;;;4.43;2.70;;;5.60;87.90;;;;;;4994663;28;20544;-71
2021/12/08 07:11:28;;;;;;;4.37;2.27;;;5.70;87.40;;;;;;4994331;28;20810;-71
2021/12/08 07:13:57;;;;;;;4.33;2.20;;;5.70;86.90;;;;;;4994329;28;20489;-71
2021/12/08 07:16:27;;;;;;;3.10;1.90;;;5.50;87.50;;;;;;4994296;28;20533;-70
2021/12/08 07:19:01;;;;;;;3.30;2.17;;;5.50;87.80;;;;;;4994808;28;20453;-71
2021/12/08 07:21:34;;;;;;;3.80;2.37;;;5.30;88.30;;;;;;4994338;28;20905;-70
2021/12/08 07:24:05;;;;;;;3.57;2.50;;;5.30;89.00;;;;;;4994353;28;20868;-70
2021/12/08 07:26:34;;;;;;;4.30;2.50;;;5.30;88.80;;;;;;4995086;28;20437;-71
2021/12/08 07:29:03;;;;;;;3.83;1.87;;;5.20;89.10;;;;;;4995134;28;20453;-71
2021/12/08 07:31:33;;;;;;;4.00;2.43;;;5.30;89.40;;;;;;4994032;28;20957;-71
2021/12/08 07:34:05;;;;;;;3.00;1.73;;;5.50;88.80;;;;;;4993989;28;20462;-70
2021/12/08 07:36:33;;;;;;;3.20;2.07;;;5.50;88.20;;;;;;4994282;28;20435;-70
2021/12/08 07:39:00;;;;;;;3.20;1.90;;;5.60;88.20;;;;;;4994185;28;20453;-71
2021/12/08 07:41:30;;;;;;;3.10;1.87;;;5.80;87.40;;;;;;4993741;28;20828;-71
2021/12/08 07:44:01;;;;;;;3.70;2.47;;;6.00;86.80;;;;;;4993967;28;20544;-71
2021/12/08 07:46:33;;;;;;;3.30;2.27;;;5.90;86.20;;;;;;4994042;28;20846;-71
2021/12/08 07:49:16;;;;;;;4.00;3.07;;;5.90;86.80;;;;;;4994142;28;20437;-71
2021/12/08 07:51:47;;;;;;;3.50;2.30;;;5.90;86.60;;;;;;4993954;28;20432;-70
2021/12/08 07:54:14;;;;;;;4.17;2.97;;;6.00;86.00;;;;;;4993956;28;20519;-71
2021/12/08 07:56:45;;;;;;;5.03;2.77;;;6.10;85.40;;;;;;4993972;28;20478;-71
2021/12/08 07:59:16;;;;;;;4.03;2.47;;;5.90;85.30;;;;;;4993918;28;20433;-69
2021/12/08 08:01:46;;;;;;;3.73;2.37;;;5.90;85.40;;;;;;4994355;28;20808;-70
2021/12/08 08:04:16;;;;;;;3.70;2.03;;;5.70;86.10;;;;;;4993938;28;20485;-70
2021/12/08 08:06:46;;;;;;;3.80;2.57;;;5.80;86.10;;;;;;4993546;28;20528;-70
2021/12/08 08:09:18;;;;;;;3.30;1.87;;;5.80;86.00;;;;;;4994388;28;20456;-71
2021/12/08 08:11:54;;;;;;;3.20;1.77;;;5.90;85.90;;;;;;4993930;28;20496;-70
2021/12/08 08:14:20;;;;;;;2.90;1.57;;;5.80;86.40;;;;;;4993461;28;20531;-70
2021/12/08 08:16:50;;;;;;;3.83;2.10;;;5.60;86.80;;;;;;4993512;28;20844;-69
2021/12/08 08:19:25;;;;;;;3.70;2.40;;;5.50;87.60;;;;;;4993818;28;20453;-70
2021/12/08 08:21:54;;;;;;;5.40;2.00;;;5.60;87.80;;;;;;4993832;28;20463;-71
2021/12/08 08:24:21;;;;;;;3.57;1.97;;;5.50;87.70;;;;;;4993540;28;20489;-70
2021/12/08 08:26:50;;;;;;;3.40;2.30;;;5.40;88.30;;;;;;4993681;28;20457;-69
2021/12/08 08:29:19;;;;;;;3.03;1.90;;;5.40;88.50;;;;;;4993574;28;20449;-70
2021/12/08 08:31:55;;;;;;;3.13;1.80;;;5.30;88.60;;;;;;4993801;28;20548;-72
2021/12/08 08:34:22;;;;;;;3.30;1.90;;;5.10;89.00;;;;;;4993650;28;20564;-71
2021/12/08 08:36:50;;;;;;;3.40;2.17;;;5.10;89.90;;;;;;4993481;28;20971;-72
2021/12/08 08:39:21;;;;;;;3.20;2.10;;;5.20;89.60;;;;;;4996337;28;20453;-74
2021/12/08 08:41:50;;;;;;;3.23;2.17;;;5.20;89.20;;;;;;4997555;28;20437;-72
2021/12/08 08:44:21;;;;;;;3.13;1.70;;;5.30;89.30;;;;;;4997215;28;20548;-72
2021/12/08 08:46:50;;;;;;;3.30;2.10;;;5.30;89.20;;;;;;4997350;28;20437;-70
2021/12/08 08:49:21;;;;;;;2.93;1.60;;;5.40;88.80;;;;;;4997247;28;20504;-72
2021/12/08 08:51:53;;;;;;;3.60;2.03;;;5.40;88.60;;;;;;4997501;28;20595;-70
2021/12/08 08:54:23;;;;;;;3.50;1.87;;;5.50;88.00;;;;;;4999875;28;20465;-71
2021/12/08 08:56:55;;;;;;;3.80;2.03;;;5.60;87.90;;;;;;4998168;28;20452;-70
2021/12/08 08:59:27;;;;;;;3.40;2.00;;;5.60;87.80;;;;;;4997183;28;20437;-71
2021/12/08 09:01:56;;;;;;;3.60;2.07;;;5.70;87.50;;;;;;4997077;28;20449;-70
2021/12/08 09:04:28;;;;;;;3.83;2.40;;;5.60;87.10;;;;;;4997073;28;20488;-70
2021/12/08 09:07:02;;;;;;;3.03;2.00;;;5.50;87.60;;;;;;4996610;28;20921;-71
2021/12/08 09:09:33;;;;;;;3.40;1.90;;;5.40;87.90;;;;;;4996841;28;20452;-71
2021/12/08 09:12:05;;;;;;;3.20;1.87;;;5.40;87.90;;;;;;4996557;28;20885;-71
2021/12/08 09:14:35;;;;;;;3.37;2.03;;;5.30;88.50;;;;;;4996569;28;20894;-71
2021/12/08 09:17:12;;;;;;;3.00;1.77;;;5.30;88.40;;;;;;4996932;28;20433;-71
2021/12/08 09:19:44;;;;;;;3.00;1.90;;;5.30;88.60;;;;;;4996765;28;20425;-71
2021/12/08 09:22:15;;;;;;;2.93;1.60;;;5.30;88.60;;;;;;4996672;28;20433;-70
2021/12/08 09:24:49;;;;;;;3.60;2.00;;;5.30;88.80;;;;;;4996448;28;20493;-71
2021/12/08 09:27:20;;;;;;;3.07;1.60;;;5.40;88.90;;;;;;4996625;28;20901;-72
2021/12/08 09:29:56;;;;;;;2.90;1.87;;;5.30;88.40;;;;;;4996550;28;20849;-71
2021/12/08 09:32:33;;;;;;;3.10;1.70;;;5.20;88.90;;;;;;4997034;28;20437;-71
2021/12/08 09:35:10;;;;;;;3.17;1.90;;;5.20;89.30;;;;;;4996247;28;20988;-71
2021/12/08 09:37:43;;;;;;;3.30;1.67;;;5.30;89.20;;;;;;4996672;28;20433;-71
2021/12/08 09:40:16;;;;;;;3.77;2.10;;;5.30;88.70;;;;;;4998415;28;20501;-71
2021/12/08 09:42:49;;;;;;;2.70;1.47;;;5.30;89.40;;;;;;4996334;28;20568;-71
2021/12/08 09:45:22;;;;;;;3.23;2.00;;;5.40;89.00;;;;;;4996479;28;20476;-72
2021/12/08 09:47:51;;;;;;;3.30;1.47;;;5.50;88.40;;;;;;4996372;28;20851;-71
2021/12/08 09:50:17;;;;;;;3.90;1.97;;;5.50;88.80;;;;;;4996252;28;20456;-71
2021/12/08 09:52:47;;;;;;;3.40;1.80;;;5.60;88.40;;;;;;4996469;28;20855;-72
2021/12/08 09:55:16;;;;;;;3.20;1.77;;;5.70;88.40;;;;;;4995960;28;20992;-71
2021/12/08 09:57:43;;;;;;;3.17;1.93;;;5.80;88.00;;;;;;4996114;28;20455;-72
2021/12/08 10:00:15;;;;;;;3.00;1.80;;;6.00;87.80;;;;;;4996057;28;20527;-72
2021/12/08 10:02:42;;;;;;;3.83;2.00;;;6.20;87.30;;;;;;4996082;28;20484;-71
2021/12/08 10:05:14;;;;;;;3.67;2.10;;;6.30;86.10;;;;;;4995731;28;20469;-71
2021/12/08 10:07:42;;;;;;;3.00;1.80;;;6.30;86.10;;;;;;4996384;28;20434;-72
2021/12/08 10:10:15;;;;;;;3.10;1.90;;;6.40;85.50;;;;;;4995927;28;20575;-72
2021/12/08 10:12:42;;;;;;;3.10;1.67;;;6.30;85.30;;;;;;4995756;28;20437;-71
2021/12/08 10:15:13;;;;;;;2.80;1.67;;;6.30;85.40;;;;;;5020519;23;20555;-70
2021/12/08 10:17:40;;;;;;;3.50;1.53;;;6.20;85.80;;;;;;4996005;28;20496;-70
2021/12/08 10:20:15;;;;;;;3.10;1.70;;;6.30;85.90;;;;;;4995814;28;20479;-70
2021/12/08 10:22:44;;;;;;;2.67;1.50;;;6.30;85.80;;;;;;4995813;28;20442;-70
2021/12/08 10:25:14;;;;;;;5.53;2.00;;;6.30;85.50;;;;;;4995819;28;20488;-70
2021/12/08 10:28:04;;;;;;;3.13;2.13;;;6.30;85.70;;;;;;4995592;28;20499;-70
2021/12/08 10:30:31;;;;;;;3.17;1.93;;;6.30;85.80;;;;;;4995489;28;20527;-70
2021/12/08 10:33:00;;;;;;;3.50;1.80;;;6.30;86.00;;;;;;4995634;28;20453;-70
2021/12/08 10:35:49;;;;;;;2.80;1.47;;;6.50;85.90;;;;;;4995507;28;20476;-70
2021/12/08 10:38:19;;;;;;;2.87;1.50;;;6.10;85.10;;;;;;4995580;28;20425;-70
2021/12/08 10:41:00;;;;;;;2.83;1.77;;;6.10;86.70;;;;;;4995264;28;20543;-70
2021/12/08 10:43:27;;;;;;;3.97;2.50;;;6.20;86.20;;;;;;4994979;28;20480;-70
2021/12/08 10:46:08;;;;;;;3.30;2.00;;;6.10;86.20;;;;;;4995228;28;20528;-70
2021/12/08 10:48:38;;;;;;;3.33;2.07;;;6.20;86.40;;;;;;4995220;28;20448;-70
2021/12/08 10:54:27;;;;;;;3.57;2.53;;;6.20;86.70;;;;;;4995138;28;20545;-70
2021/12/08 10:56:56;;;;;;;3.30;2.10;;;6.30;86.90;;;;;;4995102;28;20429;-70
2021/12/08 10:59:24;;;;;;;2.87;1.73;;;6.40;86.70;;;;;;4995119;28;20445;-70
2021/12/08 11:01:51;;;;;;;2.93;1.77;;;6.50;86.40;;;;;;4994421;28;20549;-70
2021/12/08 11:04:19;;;;;;;3.40;2.20;;;6.50;86.00;;;;;;4994775;28;20572;-70
2021/12/08 11:06:48;;;;;;;3.43;1.80;;;6.60;86.00;;;;;;4994952;28;20945;-70
2021/12/08 11:09:19;;;;;;;3.90;1.70;;;6.70;86.00;;;;;;4994811;28;20457;-70
2021/12/08 11:11:48;;;;;;;2.80;1.60;;;6.70;85.40;;;;;;4994536;28;20819;-70
2021/12/08 11:14:15;;;;;;;3.53;1.70;;;6.60;85.30;;;;;;4994525;28;20482;-70
2021/12/08 11:16:44;;;;;;;2.60;1.20;;;6.60;85.20;;;;;;4994390;28;20836;-70
2021/12/08 11:19:14;;;;;;;2.90;1.50;;;6.40;85.20;;;;;;4994379;28;20484;-70
2021/12/08 11:21:45;;;;;;;3.70;1.70;;;6.10;86.40;;;;;;4994596;28;20456;-71
2021/12/08 11:24:19;;;;;;;3.43;1.63;;;6.20;87.00;;;;;;4994521;28;20870;-70
2021/12/08 11:26:48;;;;;;;2.87;1.57;;;6.40;86.70;;;;;;4994646;28;20441;-70
2021/12/08 11:29:17;;;;;;;2.60;1.10;;;6.40;86.80;;;;;;4994286;28;20940;-70
2021/12/08 11:31:45;;;;;;;2.83;1.33;;;6.20;86.20;;;;;;4994296;28;20890;-70
2021/12/08 11:34:19;;;;;;;3.33;1.63;;;6.30;86.50;;;;;;4994472;28;20519;-70
2021/12/08 11:36:50;;;;;;;2.77;1.70;;;6.30;86.60;;;;;;4994217;28;20889;-70
2021/12/08 11:39:20;;;;;;;2.93;1.17;;;6.40;87.00;;;;;;4994528;28;20543;-70
2021/12/08 11:41:48;;;;;;;2.80;1.27;;;6.40;86.40;;;;;;4994059;28;20522;-71
2021/12/08 11:44:17;;;;;;;3.43;1.77;;;6.60;86.10;;;;;;4994159;28;20485;-71
2021/12/08 11:46:48;;;;;;;3.60;1.90;;;6.50;85.60;;;;;;4994125;28;20453;-71
2021/12/08 11:49:15;;;;;;;3.27;2.07;;;6.50;86.00;;;;;;4994131;28;20503;-70
2021/12/08 11:51:57;;;;;;;3.47;2.37;;;6.40;86.00;;;;;;4993793;28;20800;-70
2021/12/08 11:54:29;;;;;;;2.40;1.20;;;6.30;86.80;;;;;;4994115;28;20499;-70
2021/12/08 11:57:10;;;;;;;2.60;1.60;;;6.20;86.80;;;;;;4994248;28;20482;-70
2021/12/08 12:00:02;;;;;;;2.77;1.50;;;5.90;87.50;;;;;;4994140;28;20433;-70
2021/12/08 12:02:34;;;;;;;3.10;1.40;;;5.90;88.20;;;;;;4993798;28;20991;-70
2021/12/08 12:05:02;;;;;;;2.80;1.37;;;6.00;88.10;;;;;;4993894;28;20497;-69
2021/12/08 12:07:29;;;;;;;3.20;1.53;;;6.10;88.20;;;;;;4993763;28;20892;-70
2021/12/08 12:09:57;;;;;;;3.43;1.87;;;6.10;87.60;;;;;;4994165;28;20451;-71
2021/12/08 12:12:24;;;;;;;2.77;1.37;;;6.20;87.90;;;;;;4994139;28;20480;-70
2021/12/08 12:14:52;;;;;;;3.00;1.60;;;6.30;87.50;;;;;;4997356;28;20499;-71
2021/12/08 12:17:18;;;;;;;2.80;1.60;;;6.50;87.30;;;;;;4998119;28;20464;-70
2021/12/08 12:19:53;;;;;;;2.80;1.57;;;6.60;86.80;;;;;;4998446;28;20464;-70
2021/12/08 12:22:32;;;;;;;2.73;1.60;;;6.80;86.40;;;;;;4998197;28;20436;-70
2021/12/08 12:25:33;;;;;;;3.20;1.67;;;7.00;85.80;;;;;;4998177;28;20503;-71
2021/12/08 12:28:09;;;;;;;4.17;2.57;;;7.00;85.10;;;;;;4993108;28;20464;-71
2021/12/08 12:30:49;;;;;;;3.87;2.20;;;7.00;84.40;;;;;;4997991;28;20530;-70
2021/12/08 12:33:18;;;;;;;4.00;2.43;;;6.90;84.10;;;;;;4998094;28;20432;-71
2021/12/08 12:35:50;;;;;;;3.90;2.53;;;6.80;85.10;;;;;;4997807;28;20980;-70
2021/12/08 12:38:17;;;;;;;4.33;3.10;;;6.80;85.10;;;;;;4997800;28;20955;-71
2021/12/08 12:40:51;;;;;;;3.50;2.20;;;6.90;85.20;;;;;;4997572;28;20445;-71
2021/12/08 12:43:25;;;;;;;4.17;2.80;;;6.80;85.40;;;;;;4997752;28;20814;-70
2021/12/08 12:46:04;;;;;;;4.10;2.80;;;7.00;85.10;;;;;;4997542;28;20503;-71
2021/12/08 12:48:31;;;;;;;3.97;2.10;;;7.10;84.60;;;;;;4998341;28;20425;-70
2021/12/08 12:51:01;;;;;;;3.80;2.40;;;7.10;84.40;;;;;;4997493;28;20476;-70
2021/12/08 12:53:39;;;;;;;3.33;2.23;;;7.20;84.10;;;;;;4997404;28;20445;-70
2021/12/08 12:56:07;;;;;;;3.57;2.37;;;7.20;83.70;;;;;;4997405;28;20440;-70
2021/12/08 12:58:47;;;;;;;3.40;2.20;;;7.20;83.50;;;;;;4997035;28;20933;-70
2021/12/08 13:01:17;;;;;;;3.67;2.20;;;7.20;83.30;;;;;;4997319;28;20852;-71
2021/12/08 13:03:53;;;;;;;4.03;2.50;;;7.20;83.40;;;;;;4998032;28;20444;-71
2021/12/08 13:06:42;;;;;;;3.80;2.67;;;7.20;83.20;;;;;;4997052;28;20917;-69
2021/12/08 13:09:11;;;;;;;4.70;3.03;;;7.30;83.30;;;;;;4996601;28;20943;-71
2021/12/08 13:11:57;;;;;;;3.70;2.30;;;7.40;83.10;;;;;;4996825;28;20480;-71
2021/12/08 13:14:28;;;;;;;4.60;2.73;;;7.40;82.90;;;;;;4996908;28;21003;-71
2021/12/08 13:17:19;;;;;;;4.40;2.93;;;7.30;82.80;;;;;;4997041;28;20449;-71
2021/12/08 13:19:48;;;;;;;3.67;2.40;;;7.40;82.70;;;;;;4996960;28;20444;-70
2021/12/08 13:22:59;;;;;;;3.70;2.60;;;7.40;82.90;;;;;;4996662;28;20893;-70
2021/12/08 13:25:46;;;;;;;4.73;3.37;;;7.50;82.80;;;;;;4996343;28;20515;-70
2021/12/08 13:28:26;;;;;;;3.67;2.80;;;7.60;82.60;;;;;;4997154;28;20442;-70
2021/12/08 13:30:59;;;;;;;4.60;2.27;;;7.60;82.30;;;;;;4997252;28;20524;-71
2021/12/08 13:33:30;;;;;;;3.90;2.77;;;7.70;82.10;;;;;;4996850;28;20445;-71
2021/12/08 13:35:59;;;;;;;5.03;3.20;;;7.80;82.00;;;;;;4996581;28;20477;-70
2021/12/08 13:38:26;;;;;;;4.60;2.90;;;7.70;81.90;;;;;;4997837;28;20457;-71
2021/12/08 13:40:56;;;;;;;3.50;2.80;;;7.60;82.00;;;;;;4996851;28;20475;-70
2021/12/08 13:43:36;;;;;;;3.70;2.60;;;7.60;81.80;;;;;;4997467;28;20457;-71
2021/12/08 13:46:03;;;;;;;4.00;3.00;;;7.60;82.10;;;;;;4996220;28;20992;-71
2021/12/08 13:48:30;;;;;;;3.60;2.67;;;7.60;82.30;;;;;;4996499;28;20448;-71
2021/12/08 13:51:15;;;;;;;3.50;2.80;;;7.60;82.30;;;;;;4996540;28;20457;-71
2021/12/08 13:53:42;;;;;;;3.80;2.70;;;7.70;82.20;;;;;;4996054;28;20925;-71
2021/12/08 13:56:09;;;;;;;4.03;3.50;;;7.60;82.40;;;;;;4996559;28;20453;-70
2021/12/08 13:58:39;;;;;;;4.83;3.93;;;7.60;82.40;;;;;;4996447;28;20441;-70
2021/12/08 14:01:14;;;;;;;4.73;3.50;;;7.50;82.10;;;;;;4996311;28;20442;-70
2021/12/08 14:03:44;;;;;;;5.00;3.53;;;7.40;82.40;;;;;;4996215;28;20536;-71
2021/12/08 14:06:12;;;;;;;4.70;3.97;;;7.30;82.80;;;;;;4995847;28;20999;-71
2021/12/08 14:08:41;;;;;;;3.93;3.10;;;7.20;83.00;;;;;;4996205;28;20453;-71
2021/12/08 14:11:10;;;;;;;4.73;3.03;;;6.90;84.00;;;;;;4996545;28;20495;-71
2021/12/08 14:13:41;;;;;;;4.93;3.30;;;7.00;84.80;;;;;;4996041;28;20457;-71
2021/12/08 14:16:09;;;;;;;4.27;3.00;;;7.00;84.70;;;;;;4996388;28;20417;-71
2021/12/08 14:18:38;;;;;;;4.00;3.03;;;7.00;84.30;;;;;;4996391;28;20460;-71
2021/12/08 14:21:07;;;;;;;4.00;2.90;;;7.00;84.20;;;;;;4996626;28;20445;-70
2021/12/08 14:23:37;;;;;;;5.10;3.60;;;7.00;84.10;;;;;;4996449;28;20457;-71
2021/12/08 14:26:06;;;;;;;4.53;3.00;;;7.00;84.00;;;;;;4996521;28;20481;-70
2021/12/08 14:28:41;;;;;;;5.43;3.30;;;7.10;84.10;;;;;;4996773;28;20447;-70
2021/12/08 14:31:15;;;;;;;4.33;3.07;;;7.00;84.20;;;;;;4997054;28;20429;-71
2021/12/08 14:33:52;;;;;;;4.83;2.90;;;7.20;84.10;;;;;;4997519;28;20449;-70
2021/12/08 14:36:27;;;;;;;4.13;2.90;;;7.20;83.80;;;;;;4997123;28;20429;-70
2021/12/08 14:38:55;;;;;;;3.53;2.33;;;7.30;83.40;;;;;;4996091;28;20433;-70
2021/12/08 14:41:24;;;;;;;3.97;2.90;;;7.40;83.50;;;;;;4997119;28;20476;-70
2021/12/08 14:43:53;;;;;;;5.10;3.30;;;7.40;83.50;;;;;;4996567;28;20453;-70
2021/12/08 14:46:24;;;;;;;5.27;3.20;;;7.20;83.10;;;;;;4995420;28;20491;-70
2021/12/08 14:48:59;;;;;;;4.53;3.20;;;7.30;83.60;;;;;;4995510;28;20872;-70
2021/12/08 14:51:28;;;;;;;4.43;3.83;;;7.40;83.20;;;;;;4995415;28;20445;-70
2021/12/08 14:54:08;;;;;;;5.10;3.63;;;7.50;83.20;;;;;;4995705;28;20473;-71
2021/12/08 14:56:35;;;;;;;6.07;3.30;;;7.50;83.00;;;;;;4995663;28;20492;-70
2021/12/08 14:59:04;;;;;;;4.93;3.67;;;7.60;82.80;;;;;;4995264;28;20963;-70
2021/12/08 15:01:31;;;;;;;3.97;3.40;;;7.60;82.50;;;;;;4994967;28;20453;-70
2021/12/08 15:03:58;;;;;;;5.23;3.50;;;7.60;82.50;;;;;;4995483;28;20515;-70
2021/12/08 15:06:25;;;;;;;5.40;4.60;;;7.40;82.70;;;;;;4995489;28;20529;-70
2021/12/08 15:08:53;;;;;;;5.60;4.13;;;7.40;82.50;;;;;;4995061;28;20800;-70
2021/12/08 15:11:22;;;;;;;5.43;3.90;;;7.40;82.70;;;;;;4995490;28;20453;-70
2021/12/08 15:13:49;;;;;;;6.40;4.53;;;7.40;82.60;;;;;;4994709;28;20449;-70
2021/12/08 15:16:20;;;;;;;4.97;3.30;;;7.30;83.00;;;;;;4995428;28;20437;-70
2021/12/08 15:18:49;;;;;;;5.40;4.23;;;7.40;82.80;;;;;;4995269;28;20441;-70
2021/12/08 15:21:25;;;;;;;6.13;4.17;;;7.40;82.70;;;;;;4995044;28;20519;-70
2021/12/08 15:24:02;;;;;;;4.60;3.80;;;7.40;83.00;;;;;;4994801;28;20476;-70
2021/12/08 15:26:29;;;;;;;3.77;3.13;;;7.40;82.70;;;;;;4994849;28;20468;-71
2021/12/08 15:28:57;;;;;;;4.03;3.13;;;7.30;82.60;;;;;;4998819;28;20503;-70
2021/12/08 15:31:32;;;;;;;4.57;3.37;;;7.30;82.90;;;;;;5001760;28;20449;-70
2021/12/08 15:34:00;;;;;;;5.40;3.77;;;7.20;82.90;;;;;;4999353;28;20614;-70
2021/12/08 15:36:29;;;;;;;5.47;3.43;;;7.20;82.90;;;;;;4998589;28;20445;-70
2021/12/08 15:38:59;;;;;;;4.10;3.13;;;7.20;82.90;;;;;;4998149;28;20449;-70
2021/12/08 15:41:29;;;;;;;4.40;3.27;;;7.20;83.00;;;;;;4997244;28;20866;-70
2021/12/08 15:44:11;;;;;;;4.10;3.40;;;7.20;83.00;;;;;;4997919;28;20473;-69
2021/12/08 15:46:40;;;;;;;4.40;3.17;;;7.20;82.90;;;;;;4997661;28;20476;-70
2021/12/08 15:49:08;;;;;;;6.10;3.83;;;7.20;83.10;;;;;;4996536;28;20460;-70
2021/12/08 15:51:37;;;;;;;4.63;3.83;;;7.30;83.10;;;;;;4995218;28;20441;-70
2021/12/08 15:54:04;;;;;;;6.90;3.87;;;7.30;82.90;;;;;;4995375;28;20468;-70
2021/12/08 15:56:37;;;;;;;5.00;3.87;;;7.30;83.00;;;;;;4995231;28;20496;-70
2021/12/08 15:59:15;;;;;;;5.33;4.30;;;7.30;82.90;;;;;;4995070;28;20496;-70
2021/12/08 16:01:45;;;;;;;3.97;3.50;;;7.30;82.90;;;;;;4995144;28;20437;-70
2021/12/08 16:04:12;;;;;;;5.77;4.40;;;7.30;82.90;;;;;;4995029;28;20473;-70
2021/12/08 16:06:42;;;;;;;6.33;4.20;;;7.20;83.00;;;;;;4995103;28;20579;-70
2021/12/08 16:09:19;;;;;;;5.17;4.03;;;7.30;82.80;;;;;;4994307;28;20932;-70
2021/12/08 16:11:46;;;;;;;4.13;3.37;;;7.20;82.90;;;;;;4994693;28;20436;-70
2021/12/08 16:14:27;;;;;;;4.63;3.27;;;7.30;82.90;;;;;;5094122;23;20524;31
2021/12/08 16:16:59;;;;;;;6.63;3.83;;;7.30;82.90;;;;;;4972872;28;20512;-70
2021/12/08 16:19:29;;;;;;;4.73;3.80;;;7.30;82.80;;;;;;4974694;28;20486;-70
2021/12/08 16:21:56;;;;;;;6.20;4.27;;;7.40;82.70;;;;;;4974687;28;20446;-70
2021/12/08 16:24:23;;;;;;;4.80;4.17;;;7.40;82.70;;;;;;4974625;28;20552;-70
2021/12/08 16:26:56;;;;;;;4.90;4.00;;;7.40;82.60;;;;;;4974234;28;20489;-70
2021/12/08 16:29:23;;;;;;;5.07;4.57;;;7.30;82.40;;;;;;4974562;28;20467;-70
2021/12/08 16:31:51;;;;;;;6.03;5.43;;;7.30;82.40;;;;;;4974662;28;20450;-70
2021/12/08 16:34:22;;;;;;;5.53;4.57;;;7.30;82.60;;;;;;4974599;28;20457;-70
2021/12/08 16:36:52;;;;;;;7.07;5.10;;;7.30;82.70;;;;;;4974615;28;20442;-70
2021/12/08 16:39:24;;;;;;;5.20;4.30;;;7.30;82.80;;;;;;4974818;28;20481;-70
2021/12/08 16:44:37;;;;;;;6.90;5.30;;;7.30;82.60;;;;;;4974044;28;20540;-70
2021/12/08 16:47:04;;;;;;;6.67;6.00;;;7.30;82.30;;;;;;4973866;28;20446;-70
2021/12/08 16:49:33;;;;;;;8.07;6.50;;;7.30;82.50;;;;;;4974283;28;20446;-70
2021/12/08 16:51:59;;;;;;;7.93;6.90;;;7.30;82.40;;;;;;4974323;28;20458;-70
2021/12/08 16:54:27;;;;;;;6.80;5.70;;;7.20;82.80;;;;;;4974297;28;20466;-72
2021/12/08 16:56:53;;;;;;;6.33;5.70;;;7.20;83.00;;;;;;4974428;28;20445;-70
2021/12/08 16:59:21;;;;;;;7.43;6.73;;;7.20;82.90;;;;;;4975590;28;20449;-70
2021/12/08 17:01:48;;;;;;;5.80;4.70;;;7.20;82.90;;;;;;4978083;28;20520;-70
2021/12/08 17:04:16;;;;;;;5.63;4.63;;;7.20;83.10;;;;;;4977830;28;20450;-70
2021/12/08 17:06:45;;;;;;;5.50;4.63;;;7.20;82.90;;;;;;4977805;28;20528;-70
2021/12/08 17:09:13;;;;;;;6.27;4.50;;;7.30;82.80;;;;;;4977772;28;20450;-70
2021/12/08 17:11:42;;;;;;;6.93;6.07;;;7.30;82.80;;;;;;4977519;28;20964;-70
2021/12/08 17:14:10;;;;;;;6.87;5.30;;;7.30;82.80;;;;;;4978150;28;20449;-70
2021/12/08 17:16:38;;;;;;;9.13;6.67;;;7.30;82.80;;;;;;4977507;28;20465;-70
2021/12/08 17:19:09;;;;;;;9.10;6.40;;;7.40;82.70;;;;;;4977948;28;20453;-70
2021/12/08 17:21:36;;;;;;;9.17;7.03;;;7.40;82.60;;;;;;4978167;28;20446;-70
2021/12/08 17:24:04;;;;;;;11.87;7.73;;;7.40;82.40;;;;;;4977847;28;20897;-70
2021/12/08 17:26:31;;;;;;;9.23;7.83;;;7.40;82.30;;;;;;4977739;28;20486;-70
2021/12/08 17:28:58;;;;;;;7.87;6.30;;;7.40;82.20;;;;;;4977975;28;20469;-70
2021/12/08 17:31:25;;;;;;;9.33;7.87;;;7.40;82.30;;;;;;4977691;28;20457;-70